createdAt,value
2019-03-17T00:01:21.000Z,42.97
2019-03-17T00:06:24.705Z,42.28
2019-03-17T00:11:28.262Z,42.05
2019-03-17T00:16:31.822Z,42.62
2019-03-17T00:21:35.448Z,42.82
2019-03-17T00:26:39.034Z,41.22
2019-03-17T00:31:42.595Z,41.70
2019-03-17T00:36:46.523Z,42.84
2019-03-17T00:41:50.134Z,43.44
2019-03-17T00:46:53.691Z,43.00
2019-03-17T00:51:57.330Z,40.30
2019-03-17T00:57:00.857Z,38.04
2019-03-17T01:02:04.786Z,36.29
2019-03-17T01:07:08.464Z,35.00
2019-03-17T01:12:12.010Z,34.76
2019-03-17T01:17:15.578Z,34.34
2019-03-17T01:22:19.114Z,34.12
2019-03-17T01:27:22.676Z,34.74
2019-03-17T01:32:26.255Z,34.97
2019-03-17T01:37:29.805Z,35.38
2019-03-17T01:42:33.366Z,35.19
2019-03-17T01:47:36.933Z,35.38
2019-03-17T01:52:40.481Z,34.95
2019-03-17T01:57:44.083Z,34.64
2019-03-17T02:02:47.603Z,35.83
2019-03-17T02:07:51.185Z,36.21
2019-03-17T02:12:54.700Z,37.10
2019-03-17T02:17:58.250Z,37.88
2019-03-17T02:23:01.778Z,38.46
2019-03-17T02:28:05.341Z,38.15
2019-03-17T02:33:08.911Z,37.46
2019-03-17T02:38:12.500Z,35.87
2019-03-17T02:43:16.047Z,35.08
2019-03-17T02:48:19.617Z,34.13
2019-03-17T02:53:23.185Z,33.11
2019-03-17T02:58:26.731Z,32.62
2019-03-17T03:03:30.302Z,32.69
2019-03-17T03:08:33.921Z,33.33
2019-03-17T03:18:40.150Z,34.18
2019-03-17T03:23:43.749Z,34.22
2019-03-17T03:28:47.285Z,33.64
2019-03-17T03:33:50.885Z,33.16
2019-03-17T03:38:54.477Z,33.66
2019-03-17T03:43:58.064Z,34.64
2019-03-17T03:49:01.610Z,35.14
2019-03-17T03:54:05.696Z,35.44
2019-03-17T03:59:09.245Z,36.96
2019-03-17T04:04:12.812Z,37.39
2019-03-17T04:09:17.239Z,37.96
2019-03-17T04:14:20.783Z,37.19
2019-03-17T04:19:24.350Z,35.24
2019-03-17T04:24:27.894Z,34.82
2019-03-17T04:29:31.430Z,33.95
2019-03-17T04:34:35.096Z,33.67
2019-03-17T04:39:38.643Z,33.52
2019-03-17T04:44:42.206Z,33.65
2019-03-17T04:49:45.774Z,34.05
2019-03-17T04:54:49.330Z,34.21
2019-03-17T04:59:52.893Z,34.31
2019-03-17T05:04:56.597Z,34.59
2019-03-17T05:10:00.364Z,33.79
2019-03-17T05:15:05.649Z,34.08
2019-03-17T05:20:10.285Z,34.07
2019-03-17T05:25:13.962Z,34.63
2019-03-17T05:30:17.500Z,34.96
2019-03-17T05:35:21.057Z,35.44
2019-03-17T05:40:24.623Z,34.97
2019-03-17T05:45:28.172Z,34.63
2019-03-17T05:50:31.731Z,34.07
2019-03-17T05:55:35.247Z,32.97
2019-03-17T06:00:38.810Z,31.58
2019-03-17T06:05:42.320Z,31.61
2019-03-17T06:10:45.883Z,30.86
2019-03-17T06:15:49.443Z,31.51
2019-03-17T06:20:52.991Z,32.05
2019-03-17T06:25:56.525Z,32.19
2019-03-17T06:31:00.088Z,32.16
2019-03-17T06:36:03.652Z,32.03
2019-03-17T06:41:07.193Z,32.11
2019-03-17T06:46:10.754Z,32.59
2019-03-17T06:51:14.329Z,32.90
2019-03-17T06:56:17.897Z,33.09
2019-03-17T07:01:21.460Z,34.02
2019-03-17T07:06:25.009Z,33.58
2019-03-17T07:11:28.578Z,33.57
2019-03-17T07:16:32.121Z,33.92
2019-03-17T07:21:35.683Z,32.98
2019-03-17T07:26:39.333Z,33.42
2019-03-17T07:31:42.877Z,32.46
2019-03-17T07:36:46.415Z,33.68
2019-03-17T07:41:50.195Z,33.04
2019-03-17T07:46:53.724Z,33.66
2019-03-17T07:51:57.295Z,35.03
2019-03-17T07:57:00.876Z,35.42
2019-03-17T08:02:04.713Z,35.99
2019-03-17T08:07:08.255Z,36.48
2019-03-17T08:12:11.827Z,36.49
2019-03-17T08:17:15.396Z,36.18
2019-03-17T08:22:19.080Z,36.86
2019-03-17T08:27:22.631Z,37.13
2019-03-17T08:32:26.200Z,37.23
2019-03-17T08:37:29.761Z,37.38
2019-03-17T08:42:34.248Z,37.25
2019-03-17T08:47:37.808Z,37.08
2019-03-17T08:52:41.488Z,37.06
2019-03-17T08:57:45.045Z,36.42
2019-03-17T09:02:48.592Z,36.56
2019-03-17T09:07:52.159Z,37.08
2019-03-17T09:12:55.708Z,37.04
2019-03-17T09:17:59.271Z,36.42
2019-03-17T09:23:03.240Z,31.91
2019-03-17T09:28:06.966Z,35.24
2019-03-17T09:33:10.511Z,35.79
2019-03-17T09:38:14.036Z,35.85
2019-03-17T09:43:17.619Z,35.14
2019-03-17T09:48:21.136Z,35.34
2019-03-17T09:53:24.701Z,34.97
2019-03-17T09:58:28.266Z,34.64
2019-03-17T10:03:31.813Z,35.06
2019-03-17T10:08:35.360Z,35.11
2019-03-17T10:13:38.950Z,34.96
2019-03-17T10:18:42.507Z,35.43
2019-03-17T10:23:46.077Z,35.58
2019-03-17T10:28:49.763Z,34.84
2019-03-17T10:33:53.287Z,34.83
2019-03-17T10:38:56.891Z,35.03
2019-03-17T10:44:00.420Z,34.95
2019-03-17T10:49:04.841Z,35.07
2019-03-17T10:54:08.404Z,34.79
2019-03-17T10:59:11.941Z,35.05
2019-03-17T11:04:15.513Z,34.39
2019-03-17T11:09:25.120Z,34.76
2019-03-17T11:14:24.322Z,35.21
2019-03-17T11:19:27.933Z,33.71
2019-03-17T11:24:31.470Z,35.34
2019-03-17T11:29:35.047Z,35.19
2019-03-17T11:34:38.587Z,34.68
2019-03-17T11:39:42.185Z,34.29
2019-03-17T11:44:45.734Z,33.87
2019-03-17T11:49:49.310Z,32.98
2019-03-17T11:54:52.839Z,33.63
2019-03-17T11:59:56.404Z,33.74
2019-03-17T12:04:59.942Z,33.29
2019-03-17T12:10:04.909Z,32.58
2019-03-17T12:15:26.093Z,33.42
2019-03-17T12:20:29.618Z,32.71
2019-03-17T12:25:33.180Z,32.87
2019-03-17T12:30:36.777Z,33.01
2019-03-17T12:35:40.294Z,32.50
2019-03-17T12:40:43.867Z,34.65
2019-03-17T12:45:47.440Z,35.24
2019-03-17T12:50:51.013Z,34.49
2019-03-17T12:55:54.558Z,33.92
2019-03-17T13:00:58.135Z,32.65
2019-03-17T13:06:01.706Z,32.01
2019-03-17T13:11:05.325Z,31.79
2019-03-17T13:16:08.830Z,32.23
2019-03-17T13:21:12.382Z,32.87
2019-03-17T13:26:15.951Z,33.10
2019-03-17T13:31:20.555Z,33.20
2019-03-17T13:36:24.230Z,33.51
2019-03-17T13:41:28.060Z,32.98
2019-03-17T13:46:31.616Z,33.20
2019-03-17T13:51:35.155Z,32.90
2019-03-17T13:56:38.728Z,32.48
2019-03-17T14:01:42.259Z,32.80
2019-03-17T14:06:45.806Z,32.84
2019-03-17T14:11:49.344Z,32.92
2019-03-17T14:16:52.947Z,33.18
2019-03-17T14:21:56.487Z,32.93
2019-03-17T14:27:00.025Z,33.08
2019-03-17T14:32:03.597Z,32.98
2019-03-17T14:37:07.230Z,32.71
2019-03-17T14:42:10.750Z,33.33
2019-03-17T14:47:14.320Z,33.45
2019-03-17T14:52:17.957Z,33.12
2019-03-17T14:57:21.620Z,33.59
2019-03-17T15:02:25.159Z,33.80
2019-03-17T15:07:28.700Z,34.05
2019-03-17T15:12:32.267Z,34.34
2019-03-17T15:17:35.917Z,34.87
2019-03-17T15:22:39.477Z,35.35
2019-03-17T15:27:43.025Z,35.23
2019-03-17T15:32:46.584Z,34.50
2019-03-17T15:37:50.156Z,33.21
2019-03-17T15:42:53.845Z,32.65
2019-03-17T15:47:57.400Z,32.41
2019-03-17T15:53:00.937Z,32.54
2019-03-17T15:58:04.793Z,33.53
2019-03-17T16:03:08.345Z,35.14
2019-03-17T16:08:11.909Z,34.85
2019-03-17T16:13:15.452Z,35.96
2019-03-17T16:18:19.017Z,36.00
2019-03-17T16:23:22.661Z,35.83
2019-03-17T16:28:26.189Z,35.77
2019-03-17T16:33:29.727Z,35.80
2019-03-17T16:38:33.270Z,36.31
2019-03-17T16:43:36.810Z,36.84
2019-03-17T16:48:40.368Z,37.58
2019-03-17T16:53:43.941Z,37.81
2019-03-17T16:58:47.517Z,38.08
2019-03-17T17:03:51.085Z,38.19
2019-03-17T17:08:54.624Z,38.27
2019-03-17T17:13:58.155Z,38.86
2019-03-17T17:19:01.722Z,38.86
2019-03-17T17:24:05.286Z,40.71
2019-03-17T17:29:08.831Z,40.99
2019-03-17T17:34:12.397Z,41.12
2019-03-17T17:39:15.937Z,40.80
2019-03-17T17:44:19.505Z,39.93
2019-03-17T17:49:23.053Z,39.07
2019-03-17T17:54:26.620Z,38.20
2019-03-17T17:59:30.145Z,36.60
2019-03-17T18:04:33.703Z,36.24
2019-03-17T18:09:37.243Z,37.36
2019-03-17T18:14:40.790Z,38.52
2019-03-17T18:19:44.339Z,38.83
2019-03-17T18:24:47.900Z,38.96
2019-03-17T18:29:51.475Z,39.14
2019-03-17T18:34:55.079Z,40.01
2019-03-17T18:39:58.561Z,40.12
2019-03-17T18:45:02.092Z,40.62
2019-03-17T18:50:19.554Z,41.01
2019-03-17T18:55:15.052Z,41.36
2019-03-17T19:00:19.409Z,41.55
2019-03-17T19:05:23.005Z,40.09
2019-03-17T19:10:26.630Z,41.64
2019-03-17T19:15:30.311Z,41.50
2019-03-17T19:20:33.845Z,41.25
2019-03-17T19:25:37.383Z,40.85
2019-03-17T19:30:41.026Z,40.41
2019-03-17T19:35:44.562Z,40.59
2019-03-17T19:40:48.127Z,41.09
2019-03-17T19:45:51.665Z,41.08
2019-03-17T19:50:55.225Z,40.95
2019-03-17T19:55:58.828Z,39.70
2019-03-17T20:01:02.468Z,38.02
2019-03-17T20:06:06.058Z,36.74
2019-03-17T20:11:09.600Z,36.61
2019-03-17T20:16:13.161Z,36.66
2019-03-17T20:21:16.700Z,36.79
2019-03-17T20:26:20.255Z,36.33
2019-03-17T20:31:23.799Z,37.05
2019-03-17T20:36:27.369Z,37.45
2019-03-17T20:41:30.910Z,37.52
2019-03-17T20:46:34.486Z,37.93
2019-03-17T20:51:38.049Z,38.33
2019-03-17T20:56:41.629Z,38.48
2019-03-17T21:01:45.172Z,39.96
2019-03-17T21:06:48.741Z,39.96
2019-03-17T21:11:52.311Z,39.70
2019-03-17T21:16:56.177Z,40.06
2019-03-17T21:21:59.728Z,43.75
2019-03-17T21:27:03.298Z,40.05
2019-03-17T21:32:06.922Z,45.06
2019-03-17T21:37:10.514Z,45.94
2019-03-17T21:42:14.064Z,46.52
2019-03-17T21:47:17.596Z,47.17
2019-03-17T21:52:21.135Z,46.92
2019-03-17T21:57:26.557Z,44.90
2019-03-17T22:02:30.086Z,48.35
2019-03-17T22:07:33.659Z,47.49
2019-03-17T22:12:37.317Z,48.62
2019-03-17T22:17:41.166Z,47.68
2019-03-17T22:22:44.727Z,48.01
2019-03-17T22:27:48.263Z,47.84
2019-03-17T22:32:51.813Z,45.79
2019-03-17T22:37:55.774Z,48.72
2019-03-17T22:42:59.312Z,45.59
2019-03-17T22:48:02.883Z,49.90
2019-03-17T22:53:06.441Z,49.32
2019-03-17T22:58:10.048Z,43.81
2019-03-17T23:03:14.925Z,42.33
2019-03-17T23:08:18.511Z,44.57
2019-03-17T23:13:22.022Z,45.01
2019-03-17T23:18:25.880Z,48.10
2019-03-17T23:23:29.422Z,48.70
2019-03-17T23:28:32.968Z,49.33
2019-03-17T23:33:36.707Z,49.86
2019-03-17T23:38:40.434Z,50.00
2019-03-17T23:43:44.013Z,47.02
2019-03-17T23:48:47.563Z,46.79
2019-03-17T23:53:51.096Z,45.92
2019-03-17T23:58:54.694Z,45.14
